Warren, Arkansas
Current Conditions -  °F | °C
As of 12:53 PM on Sunday 23 Nov 2014 (Local Time) from KLLQ Reporting Station
Light Rain Light Rain  
Wind Chill: 61°   Ceiling: 2300
Heat Index: 61°   Visibility: 10mi
Dew Point: 59°   Wind: 9mph
Humidity: 93%   Direction: 270°W
Pressure: 29.41"   Gusts: NA
Location:  33.61°N, 92.06°W
Report Text: KLLQ 231853Z AUTO 27008KT 10SM -RA SCT004 BKN023 OVC070 16/15 A2941 RMK AO2 SLP956 P0011 T01610150
Loading
Personal Weather Stations






























Interactive Weather Map New forecast layout! Learn more

10-Day Weather Forecast

Advertisements
Track Severe Weather on mobile